createdAt,value
2023-01-26T00:00:17.915Z,1011.94
2023-01-26T00:01:17.925Z,1011.93
2023-01-26T00:02:17.914Z,1011.91
2023-01-26T00:03:17.892Z,1011.90
2023-01-26T00:04:17.869Z,1011.87
2023-01-26T00:05:17.875Z,1011.84
2023-01-26T00:06:17.856Z,1011.82
2023-01-26T00:07:17.887Z,1011.77
2023-01-26T00:08:17.830Z,1011.72
2023-01-26T00:09:17.833Z,1011.72
2023-01-26T00:10:17.818Z,1011.72
2023-01-26T00:11:17.813Z,1011.69
2023-01-26T00:12:17.809Z,1011.69
2023-01-26T00:13:17.813Z,1011.66
2023-01-26T00:14:17.809Z,1011.65
2023-01-26T00:15:17.767Z,1011.65
2023-01-26T00:16:17.823Z,1011.65
2023-01-26T00:17:17.759Z,1011.66
2023-01-26T00:18:17.741Z,1011.67
2023-01-26T00:19:17.744Z,1011.65
2023-01-26T00:20:17.718Z,1011.60
2023-01-26T00:21:17.717Z,1011.60
2023-01-26T00:22:17.695Z,1011.57
2023-01-26T00:23:17.711Z,1011.58
2023-01-26T00:24:17.817Z,1011.60
2023-01-26T00:25:17.678Z,1011.61
2023-01-26T00:26:17.661Z,1011.62
2023-01-26T00:27:17.650Z,1011.60
2023-01-26T00:28:17.633Z,1011.59
2023-01-26T00:29:17.637Z,1011.57
2023-01-26T00:30:17.709Z,1011.54
2023-01-26T00:31:17.640Z,1011.50
2023-01-26T00:32:17.605Z,1011.46
2023-01-26T00:33:17.665Z,1011.47
2023-01-26T00:34:17.613Z,1011.51
2023-01-26T00:35:17.599Z,1011.56
2023-01-26T00:36:17.568Z,1011.59
2023-01-26T00:37:17.558Z,1011.59
2023-01-26T00:38:17.544Z,1011.58
2023-01-26T00:39:17.660Z,1011.56
2023-01-26T00:40:17.535Z,1011.52
2023-01-26T00:41:17.502Z,1011.53
2023-01-26T00:42:17.523Z,1011.54
2023-01-26T00:43:17.491Z,1011.57
2023-01-26T00:44:17.519Z,1011.57
2023-01-26T00:45:17.509Z,1011.56
2023-01-26T00:46:17.528Z,1011.54
2023-01-26T00:47:17.443Z,1011.51
2023-01-26T00:48:17.422Z,1011.50
2023-01-26T00:49:17.439Z,1011.49
2023-01-26T00:50:17.423Z,1011.46
2023-01-26T00:51:17.553Z,1011.42
2023-01-26T00:52:17.409Z,1011.38
2023-01-26T00:53:17.397Z,1011.37
2023-01-26T00:54:17.391Z,1011.37
2023-01-26T00:55:17.368Z,1011.37
2023-01-26T00:56:17.353Z,1011.37
2023-01-26T00:57:17.377Z,1011.37
2023-01-26T00:58:17.492Z,1011.37
2023-01-26T00:59:17.332Z,1011.36
2023-01-26T01:00:17.318Z,1011.36
2023-01-26T01:01:17.492Z,1011.36
2023-01-26T01:02:17.372Z,1011.34
2023-01-26T01:03:17.304Z,1011.32
2023-01-26T01:04:17.277Z,1011.32
2023-01-26T01:05:17.302Z,1011.32
2023-01-26T01:06:17.300Z,1011.33
2023-01-26T01:07:17.339Z,1011.33
2023-01-26T01:08:17.253Z,1011.30
2023-01-26T01:09:17.233Z,1011.30
2023-01-26T01:10:17.238Z,1011.29
2023-01-26T01:11:17.233Z,1011.26
2023-01-26T01:12:17.245Z,1011.24
2023-01-26T01:13:17.227Z,1011.24
2023-01-26T01:14:17.184Z,1011.22
2023-01-26T01:15:17.198Z,1011.18
2023-01-26T01:16:17.345Z,1011.14
2023-01-26T01:17:17.185Z,1011.11
2023-01-26T01:18:17.160Z,1011.11
2023-01-26T01:19:17.134Z,1011.12
2023-01-26T01:20:17.110Z,1011.12
2023-01-26T01:21:17.125Z,1011.11
2023-01-26T01:22:17.101Z,1011.11
2023-01-26T01:23:17.115Z,1011.11
2023-01-26T01:24:17.093Z,1011.10
2023-01-26T01:25:17.070Z,1011.11
2023-01-26T01:26:17.053Z,1011.13
2023-01-26T01:27:17.037Z,1011.14
2023-01-26T01:28:17.062Z,1011.14
2023-01-26T01:29:17.037Z,1011.12
2023-01-26T01:30:17.001Z,1011.14
2023-01-26T01:31:17.071Z,1011.12
2023-01-26T01:32:16.979Z,1011.12
2023-01-26T01:33:16.982Z,1011.16
2023-01-26T01:34:16.977Z,1011.13
2023-01-26T01:35:16.965Z,1011.12
2023-01-26T01:36:16.939Z,1011.11
2023-01-26T01:37:16.967Z,1011.12
2023-01-26T01:38:17.366Z,1011.11
2023-01-26T01:39:21.315Z,1011.11
2023-01-26T01:40:16.913Z,1011.08
2023-01-26T01:41:16.890Z,1011.06
2023-01-26T01:42:16.898Z,1011.05
2023-01-26T01:43:16.874Z,1011.04
2023-01-26T01:44:16.888Z,1011.03
2023-01-26T01:45:16.842Z,1011.04
2023-01-26T01:46:16.907Z,1011.04
2023-01-26T01:47:16.816Z,1011.03
2023-01-26T01:48:16.851Z,1011.03
2023-01-26T01:49:16.831Z,1011.03
2023-01-26T01:50:16.807Z,1011.02
2023-01-26T01:51:16.808Z,1011.02
2023-01-26T01:52:16.804Z,1011.03
2023-01-26T01:53:16.766Z,1011.06
2023-01-26T01:54:16.839Z,1011.06
2023-01-26T01:55:16.735Z,1011.04
2023-01-26T01:56:16.749Z,1011.02
2023-01-26T01:57:16.730Z,1011.01
2023-01-26T01:58:16.757Z,1011.00
2023-01-26T01:59:16.749Z,1011.02
2023-01-26T02:00:16.787Z,1011.00
2023-01-26T02:01:16.689Z,1011.00
2023-01-26T02:02:16.789Z,1011.00
2023-01-26T02:03:16.688Z,1011.00
2023-01-26T02:04:16.655Z,1010.99
2023-01-26T02:05:16.653Z,1011.00
2023-01-26T02:06:16.669Z,1011.00
2023-01-26T02:07:16.659Z,1010.99
2023-01-26T02:08:16.631Z,1010.98
2023-01-26T02:09:16.608Z,1010.97
2023-01-26T02:10:16.594Z,1010.98
2023-01-26T02:11:16.596Z,1010.98
2023-01-26T02:12:16.603Z,1010.98
2023-01-26T02:13:16.563Z,1010.97
2023-01-26T02:14:16.569Z,1010.96
2023-01-26T02:15:16.543Z,1010.95
2023-01-26T02:16:16.593Z,1010.94
2023-01-26T02:17:16.562Z,1010.93
2023-01-26T02:18:16.540Z,1010.92
2023-01-26T02:19:16.497Z,1010.92
2023-01-26T02:20:16.515Z,1010.90
2023-01-26T02:21:16.481Z,1010.90
2023-01-26T02:22:16.551Z,1010.88
2023-01-26T02:23:16.475Z,1010.89
2023-01-26T02:24:16.505Z,1010.89
2023-01-26T02:25:16.443Z,1010.90
2023-01-26T02:26:16.457Z,1010.91
2023-01-26T02:27:16.469Z,1010.91
2023-01-26T02:28:16.444Z,1010.90
2023-01-26T02:29:16.400Z,1010.90
2023-01-26T02:30:16.404Z,1010.89
2023-01-26T02:31:16.486Z,1010.87
2023-01-26T02:32:16.452Z,1010.85
2023-01-26T02:33:16.368Z,1010.84
2023-01-26T02:34:16.373Z,1010.83
2023-01-26T02:35:16.339Z,1010.82
2023-01-26T02:36:16.355Z,1010.82
2023-01-26T02:37:16.350Z,1010.80
2023-01-26T02:38:16.319Z,1010.79
2023-01-26T02:39:16.303Z,1010.79
2023-01-26T02:40:16.295Z,1010.78
2023-01-26T02:41:16.296Z,1010.77
2023-01-26T02:42:16.277Z,1010.78
2023-01-26T02:43:16.270Z,1010.77
2023-01-26T02:44:16.269Z,1010.78
2023-01-26T02:45:16.243Z,1010.78
2023-01-26T02:46:16.264Z,1010.78
2023-01-26T02:47:16.250Z,1010.78
2023-01-26T02:48:16.234Z,1010.79
2023-01-26T02:49:16.251Z,1010.79
2023-01-26T02:50:16.191Z,1010.79
2023-01-26T02:51:16.206Z,1010.80
2023-01-26T02:52:16.172Z,1010.78
2023-01-26T02:53:16.188Z,1010.79
2023-01-26T02:54:16.163Z,1010.79
2023-01-26T02:55:16.155Z,1010.78
2023-01-26T02:56:16.128Z,1010.77
2023-01-26T02:57:16.146Z,1010.77
2023-01-26T02:58:16.116Z,1010.74
2023-01-26T02:59:16.248Z,1010.73
2023-01-26T03:00:16.095Z,1010.73
2023-01-26T03:01:16.116Z,1010.74
2023-01-26T03:02:16.082Z,1010.74
2023-01-26T03:03:16.066Z,1010.74
2023-01-26T03:04:16.064Z,1010.74
2023-01-26T03:05:16.072Z,1010.74
2023-01-26T03:06:16.029Z,1010.75
2023-01-26T03:07:16.034Z,1010.75
2023-01-26T03:08:16.006Z,1010.74
2023-01-26T03:09:16.018Z,1010.74
2023-01-26T03:10:15.996Z,1010.71
2023-01-26T03:11:15.995Z,1010.69
2023-01-26T03:12:15.979Z,1010.67
2023-01-26T03:13:15.960Z,1010.64
2023-01-26T03:14:15.944Z,1010.64
2023-01-26T03:15:15.952Z,1010.65
2023-01-26T03:16:15.969Z,1010.66
2023-01-26T03:17:16.001Z,1010.67
2023-01-26T03:18:15.906Z,1010.68
2023-01-26T03:19:15.894Z,1010.68
2023-01-26T03:20:15.906Z,1010.68
2023-01-26T03:21:15.890Z,1010.68
2023-01-26T03:22:15.887Z,1010.67
2023-01-26T03:23:15.871Z,1010.69
2023-01-26T03:24:15.945Z,1010.69
2023-01-26T03:25:15.843Z,1010.70
2023-01-26T03:26:15.837Z,1010.68
2023-01-26T03:27:15.826Z,1010.67
2023-01-26T03:28:15.804Z,1010.67
2023-01-26T03:29:15.915Z,1010.66
2023-01-26T03:30:15.873Z,1010.67
2023-01-26T03:31:15.835Z,1010.66
2023-01-26T03:32:15.977Z,1010.66
2023-01-26T03:33:15.775Z,1010.65
2023-01-26T03:34:15.740Z,1010.64
2023-01-26T03:35:15.842Z,1010.63
2023-01-26T03:36:15.752Z,1010.62
2023-01-26T03:37:15.721Z,1010.61
2023-01-26T03:38:15.703Z,1010.62
2023-01-26T03:39:15.697Z,1010.61
2023-01-26T03:40:15.690Z,1010.60
2023-01-26T03:41:15.715Z,1010.58
2023-01-26T03:42:15.655Z,1010.56
2023-01-26T03:43:15.650Z,1010.55
2023-01-26T03:44:15.648Z,1010.55
2023-01-26T03:45:15.632Z,1010.54
2023-01-26T03:46:15.629Z,1010.55
2023-01-26T03:47:15.641Z,1010.56
2023-01-26T03:48:15.617Z,1010.57
2023-01-26T03:49:15.645Z,1010.58
2023-01-26T03:50:15.599Z,1010.58
2023-01-26T03:51:15.680Z,1010.58
2023-01-26T03:52:15.569Z,1010.58
2023-01-26T03:53:15.680Z,1010.56
2023-01-26T03:54:15.573Z,1010.55
2023-01-26T03:55:15.573Z,1010.54
2023-01-26T03:56:15.549Z,1010.55
2023-01-26T03:57:15.519Z,1010.55
2023-01-26T03:58:15.509Z,1010.55
2023-01-26T03:59:15.643Z,1010.55
2023-01-26T04:00:15.476Z,1010.55
2023-01-26T04:01:15.494Z,1010.54
2023-01-26T04:02:15.551Z,1010.55
2023-01-26T04:03:15.493Z,1010.54
2023-01-26T04:04:15.640Z,1010.54
2023-01-26T04:05:15.445Z,1010.53
2023-01-26T04:06:16.789Z,1010.52
2023-01-26T04:07:15.478Z,1010.51
2023-01-26T04:08:15.964Z,1010.50
2023-01-26T04:09:15.518Z,1010.50
2023-01-26T04:10:15.489Z,1010.51
2023-01-26T04:11:15.365Z,1010.52
2023-01-26T04:12:15.388Z,1010.52
2023-01-26T04:13:15.373Z,1010.52
2023-01-26T04:14:15.366Z,1010.52
2023-01-26T04:15:15.672Z,1010.51
2023-01-26T04:16:15.337Z,1010.51
2023-01-26T04:17:15.350Z,1010.51
2023-01-26T04:18:15.300Z,1010.50
2023-01-26T04:19:15.299Z,1010.48
2023-01-26T04:20:15.298Z,1010.47
2023-01-26T04:21:15.276Z,1010.47
2023-01-26T04:22:15.260Z,1010.46
2023-01-26T04:23:15.255Z,1010.47
2023-01-26T04:24:17.152Z,1010.48
2023-01-26T04:25:15.235Z,1010.47
2023-01-26T04:26:15.299Z,1010.47
2023-01-26T04:27:15.208Z,1010.46
2023-01-26T04:28:15.207Z,1010.44
2023-01-26T04:29:15.192Z,1010.44
2023-01-26T04:30:15.193Z,1010.43
2023-01-26T04:31:15.183Z,1010.42
2023-01-26T04:32:15.163Z,1010.42
2023-01-26T04:33:15.156Z,1010.43
2023-01-26T04:34:15.178Z,1010.44
2023-01-26T04:35:15.242Z,1010.44
2023-01-26T04:36:15.209Z,1010.45
2023-01-26T04:37:15.110Z,1010.45
2023-01-26T04:38:15.105Z,1010.46
2023-01-26T04:39:15.089Z,1010.46
2023-01-26T04:40:15.156Z,1010.46
2023-01-26T04:41:15.070Z,1010.45
2023-01-26T04:42:15.085Z,1010.45
2023-01-26T04:43:15.040Z,1010.44
2023-01-26T04:44:15.092Z,1010.45
2023-01-26T04:45:15.024Z,1010.43
2023-01-26T04:46:15.054Z,1010.43
2023-01-26T04:47:15.027Z,1010.43
2023-01-26T04:48:14.988Z,1010.44
2023-01-26T04:49:14.989Z,1010.43
2023-01-26T04:50:14.970Z,1010.44
2023-01-26T04:51:14.971Z,1010.43
2023-01-26T04:52:14.977Z,1010.43
2023-01-26T04:53:14.940Z,1010.43
2023-01-26T04:54:15.025Z,1010.42
2023-01-26T04:55:14.925Z,1010.39
2023-01-26T04:56:14.920Z,1010.36
2023-01-26T04:57:14.936Z,1010.33
2023-01-26T04:58:14.897Z,1010.32
2023-01-26T04:59:14.902Z,1010.33
2023-01-26T05:00:14.909Z,1010.33
2023-01-26T05:01:15.000Z,1010.35
2023-01-26T05:02:14.837Z,1010.35
2023-01-26T05:03:14.844Z,1010.37
2023-01-26T05:04:14.929Z,1010.38
2023-01-26T05:05:14.834Z,1010.42
2023-01-26T05:06:14.838Z,1010.44
2023-01-26T05:07:14.841Z,1010.45
2023-01-26T05:08:14.811Z,1010.44
2023-01-26T05:09:14.791Z,1010.42
2023-01-26T05:10:15.943Z,1010.38
2023-01-26T05:11:14.762Z,1010.37
2023-01-26T05:12:14.754Z,1010.33
2023-01-26T05:13:14.760Z,1010.32
2023-01-26T05:14:14.729Z,1010.30
2023-01-26T05:15:14.757Z,1010.30
2023-01-26T05:16:14.727Z,1010.30
2023-01-26T05:17:14.736Z,1010.29
2023-01-26T05:18:14.680Z,1010.29
2023-01-26T05:19:14.684Z,1010.29
2023-01-26T05:20:14.676Z,1010.31
2023-01-26T05:21:14.665Z,1010.31
2023-01-26T05:22:14.711Z,1010.31
2023-01-26T05:23:14.651Z,1010.31
2023-01-26T05:24:14.721Z,1010.34
2023-01-26T05:25:14.642Z,1010.32
2023-01-26T05:26:14.590Z,1010.31
2023-01-26T05:27:14.628Z,1010.32
2023-01-26T05:28:14.593Z,1010.32
2023-01-26T05:29:14.597Z,1010.33
2023-01-26T05:30:15.006Z,1010.33
2023-01-26T05:31:14.565Z,1010.33
2023-01-26T05:32:14.535Z,1010.32
2023-01-26T05:33:14.569Z,1010.33
2023-01-26T05:34:14.551Z,1010.34
2023-01-26T05:35:14.526Z,1010.34
2023-01-26T05:36:14.502Z,1010.35
2023-01-26T05:37:15.370Z,1010.35
2023-01-26T05:38:14.493Z,1010.35
2023-01-26T05:39:14.477Z,1010.34
2023-01-26T05:40:14.479Z,1010.33
2023-01-26T05:41:14.551Z,1010.31
2023-01-26T05:42:14.447Z,1010.30
2023-01-26T05:43:14.450Z,1010.30
2023-01-26T05:44:14.432Z,1010.29
2023-01-26T05:45:14.421Z,1010.28
2023-01-26T05:46:14.481Z,1010.27
2023-01-26T05:47:14.398Z,1010.27
2023-01-26T05:48:14.423Z,1010.27
2023-01-26T05:49:14.392Z,1010.28
2023-01-26T05:50:14.352Z,1010.29
2023-01-26T05:51:14.389Z,1010.29
2023-01-26T05:52:14.347Z,1010.30
2023-01-26T05:53:14.338Z,1010.30
2023-01-26T05:54:14.376Z,1010.31
2023-01-26T05:55:14.333Z,1010.32
2023-01-26T05:56:14.296Z,1010.33
2023-01-26T05:57:14.324Z,1010.35
2023-01-26T05:58:14.279Z,1010.37
2023-01-26T05:59:14.283Z,1010.36
2023-01-26T06:00:14.298Z,1010.36
2023-01-26T06:01:14.263Z,1010.35
2023-01-26T06:02:14.303Z,1010.35
2023-01-26T06:03:14.253Z,1010.34
2023-01-26T06:04:14.269Z,1010.33
2023-01-26T06:05:14.285Z,1010.32
2023-01-26T06:06:14.203Z,1010.30
2023-01-26T06:07:14.228Z,1010.29
2023-01-26T06:08:14.214Z,1010.30
2023-01-26T06:09:14.240Z,1010.31
2023-01-26T06:10:14.361Z,1010.31
2023-01-26T06:11:14.169Z,1010.30
2023-01-26T06:12:14.139Z,1010.30
2023-01-26T06:13:14.169Z,1010.30
2023-01-26T06:14:14.166Z,1010.30
2023-01-26T06:15:14.207Z,1010.31
2023-01-26T06:16:14.099Z,1010.30
2023-01-26T06:17:14.120Z,1010.29
2023-01-26T06:18:14.075Z,1010.31
2023-01-26T06:19:14.123Z,1010.32
2023-01-26T06:20:14.212Z,1010.31
2023-01-26T06:21:14.050Z,1010.29
2023-01-26T06:22:14.037Z,1010.27
2023-01-26T06:23:14.029Z,1010.31
2023-01-26T06:24:14.055Z,1010.37
2023-01-26T06:25:14.018Z,1010.38
2023-01-26T06:26:14.016Z,1010.37
2023-01-26T06:27:13.987Z,1010.34
2023-01-26T06:28:13.986Z,1010.34
2023-01-26T06:29:14.000Z,1010.34
2023-01-26T06:30:13.964Z,1010.37
2023-01-26T06:31:14.118Z,1010.38
2023-01-26T06:32:13.950Z,1010.38
2023-01-26T06:33:13.918Z,1010.38
2023-01-26T06:34:13.911Z,1010.37
2023-01-26T06:35:13.925Z,1010.39
2023-01-26T06:36:13.890Z,1010.37
2023-01-26T06:37:13.987Z,1010.38
2023-01-26T06:38:13.876Z,1010.39
2023-01-26T06:39:13.879Z,1010.39
2023-01-26T06:40:13.916Z,1010.40
2023-01-26T06:41:13.856Z,1010.40
2023-01-26T06:42:13.825Z,1010.39
2023-01-26T06:43:14.158Z,1010.38
2023-01-26T06:44:13.829Z,1010.40
2023-01-26T06:45:13.888Z,1010.42
2023-01-26T06:46:13.841Z,1010.43
2023-01-26T06:47:13.854Z,1010.44
2023-01-26T06:48:13.816Z,1010.45
2023-01-26T06:49:13.907Z,1010.45
2023-01-26T06:50:13.913Z,1010.46
2023-01-26T06:51:13.771Z,1010.46
2023-01-26T06:52:13.818Z,1010.46
2023-01-26T06:53:13.724Z,1010.46
2023-01-26T06:54:13.710Z,1010.47
2023-01-26T06:55:13.817Z,1010.45
2023-01-26T06:56:13.643Z,1010.46
2023-01-26T06:57:13.633Z,1010.45
2023-01-26T06:58:13.752Z,1010.45
2023-01-26T06:59:13.672Z,1010.44
2023-01-26T07:00:13.826Z,1010.44
2023-01-26T07:01:13.610Z,1010.43
2023-01-26T07:02:13.602Z,1010.42
2023-01-26T07:03:13.610Z,1010.42
2023-01-26T07:04:13.549Z,1010.42
2023-01-26T07:05:13.619Z,1010.44
2023-01-26T07:06:13.537Z,1010.44
2023-01-26T07:07:13.928Z,1010.45
2023-01-26T07:08:13.524Z,1010.48
2023-01-26T07:09:13.504Z,1010.48
2023-01-26T07:10:13.675Z,1010.50
2023-01-26T07:11:13.497Z,1010.49
2023-01-26T07:12:13.874Z,1010.50
2023-01-26T07:13:13.448Z,1010.49
2023-01-26T07:14:13.483Z,1010.51
2023-01-26T07:15:13.464Z,1010.50
2023-01-26T07:16:13.605Z,1010.50
2023-01-26T07:17:13.431Z,1010.49
2023-01-26T07:18:13.430Z,1010.50
2023-01-26T07:19:13.420Z,1010.51
2023-01-26T07:20:13.652Z,1010.52
2023-01-26T07:21:13.392Z,1010.53
2023-01-26T07:22:13.383Z,1010.55
2023-01-26T07:23:13.364Z,1010.57
2023-01-26T07:24:13.442Z,1010.58
2023-01-26T07:25:13.382Z,1010.59
2023-01-26T07:26:13.339Z,1010.60
2023-01-26T07:27:13.355Z,1010.60
2023-01-26T07:28:13.315Z,1010.59
2023-01-26T07:29:13.299Z,1010.59
2023-01-26T07:30:13.512Z,1010.57
2023-01-26T07:31:13.439Z,1010.58
2023-01-26T07:32:13.290Z,1010.57
2023-01-26T07:33:13.277Z,1010.57
2023-01-26T07:34:13.269Z,1010.58
2023-01-26T07:35:13.243Z,1010.57
2023-01-26T07:36:13.236Z,1010.57
2023-01-26T07:37:13.297Z,1010.57
2023-01-26T07:38:13.219Z,1010.56
2023-01-26T07:39:13.196Z,1010.57
2023-01-26T07:40:13.468Z,1010.57
2023-01-26T07:41:13.186Z,1010.58
2023-01-26T07:42:13.207Z,1010.60
2023-01-26T07:43:13.153Z,1010.59
2023-01-26T07:44:13.264Z,1010.60
2023-01-26T07:45:13.162Z,1010.60
2023-01-26T07:46:13.290Z,1010.62
2023-01-26T07:47:13.114Z,1010.62
2023-01-26T07:48:13.136Z,1010.63
2023-01-26T07:49:13.098Z,1010.62
2023-01-26T07:50:13.203Z,1010.63
2023-01-26T07:51:13.064Z,1010.63
2023-01-26T07:52:13.083Z,1010.62
2023-01-26T07:53:13.047Z,1010.62
2023-01-26T07:54:13.160Z,1010.63
2023-01-26T07:55:13.029Z,1010.64
2023-01-26T07:56:13.068Z,1010.66
2023-01-26T07:57:13.009Z,1010.66
2023-01-26T07:58:13.063Z,1010.68
2023-01-26T07:59:13.054Z,1010.68
2023-01-26T08:00:13.275Z,1010.68
2023-01-26T08:01:12.975Z,1010.66
2023-01-26T08:02:12.979Z,1010.67
2023-01-26T08:03:12.962Z,1010.65
2023-01-26T08:04:12.951Z,1010.64
2023-01-26T08:05:12.920Z,1010.63
2023-01-26T08:06:13.760Z,1010.62
2023-01-26T08:07:12.956Z,1010.61
2023-01-26T08:08:12.913Z,1010.62
2023-01-26T08:09:12.925Z,1010.63
2023-01-26T08:10:13.316Z,1010.63
2023-01-26T08:11:12.890Z,1010.65
2023-01-26T08:12:12.876Z,1010.66
2023-01-26T08:13:12.872Z,1010.69
2023-01-26T08:14:12.855Z,1010.71
2023-01-26T08:15:12.914Z,1010.72
2023-01-26T08:16:13.160Z,1010.73
2023-01-26T08:17:12.912Z,1010.74
2023-01-26T08:18:12.979Z,1010.74
2023-01-26T08:19:12.823Z,1010.73
2023-01-26T08:20:13.305Z,1010.73
2023-01-26T08:21:12.793Z,1010.72
2023-01-26T08:22:12.787Z,1010.72
2023-01-26T08:23:12.772Z,1010.72
2023-01-26T08:24:12.845Z,1010.73
2023-01-26T08:25:12.775Z,1010.75
2023-01-26T08:26:12.800Z,1010.75
2023-01-26T08:27:12.707Z,1010.74
2023-01-26T08:28:12.821Z,1010.75
2023-01-26T08:29:12.778Z,1010.74
2023-01-26T08:30:13.128Z,1010.71
2023-01-26T08:31:12.877Z,1010.68
2023-01-26T08:32:12.772Z,1010.66
2023-01-26T08:33:12.688Z,1010.65
2023-01-26T08:34:12.751Z,1010.64
2023-01-26T08:35:12.720Z,1010.63
2023-01-26T08:36:12.763Z,1010.62
2023-01-26T08:37:12.704Z,1010.61
2023-01-26T08:38:12.617Z,1010.59
2023-01-26T08:39:12.852Z,1010.58
2023-01-26T08:40:13.120Z,1010.57
2023-01-26T08:41:12.576Z,1010.55
2023-01-26T08:42:12.560Z,1010.55
2023-01-26T08:43:12.548Z,1010.56
2023-01-26T08:44:12.542Z,1010.54
2023-01-26T08:45:12.522Z,1010.54
2023-01-26T08:46:12.970Z,1010.56
2023-01-26T08:47:12.496Z,1010.58
2023-01-26T08:48:12.493Z,1010.61
2023-01-26T08:49:12.491Z,1010.64
2023-01-26T08:50:12.872Z,1010.66
2023-01-26T08:51:12.473Z,1010.66
2023-01-26T08:52:12.481Z,1010.66
2023-01-26T08:53:12.436Z,1010.67
2023-01-26T08:54:12.457Z,1010.68
2023-01-26T08:55:12.428Z,1010.68
2023-01-26T08:56:12.417Z,1010.70
2023-01-26T08:57:12.467Z,1010.70
2023-01-26T08:58:12.393Z,1010.71
2023-01-26T08:59:12.388Z,1010.73
2023-01-26T09:00:12.749Z,1010.71
2023-01-26T09:01:12.448Z,1010.70
2023-01-26T09:02:12.483Z,1010.68
2023-01-26T09:03:12.686Z,1010.68
2023-01-26T09:04:12.346Z,1010.70
2023-01-26T09:05:12.330Z,1010.73
2023-01-26T09:06:12.356Z,1010.74
2023-01-26T09:07:13.565Z,1010.78
2023-01-26T09:08:12.344Z,1010.79
2023-01-26T09:09:12.264Z,1010.81
2023-01-26T09:10:12.662Z,1010.81
2023-01-26T09:11:12.318Z,1010.80
2023-01-26T09:12:12.257Z,1010.82
2023-01-26T09:13:12.266Z,1010.82
2023-01-26T09:14:12.256Z,1010.83
2023-01-26T09:15:12.222Z,1010.83
2023-01-26T09:16:12.232Z,1010.86
2023-01-26T09:17:12.218Z,1010.87
2023-01-26T09:18:12.208Z,1010.87
2023-01-26T09:19:12.217Z,1010.88
2023-01-26T09:20:12.570Z,1010.89
2023-01-26T09:21:12.140Z,1010.89
2023-01-26T09:22:12.163Z,1010.87
2023-01-26T09:23:12.167Z,1010.87
2023-01-26T09:24:12.266Z,1010.86
2023-01-26T09:25:12.423Z,1010.87
2023-01-26T09:26:12.113Z,1010.87
2023-01-26T09:27:12.094Z,1010.89
2023-01-26T09:28:12.131Z,1010.90
2023-01-26T09:29:12.075Z,1010.89
2023-01-26T09:30:12.207Z,1010.90
2023-01-26T09:31:12.236Z,1010.89
2023-01-26T09:32:12.042Z,1010.88
2023-01-26T09:33:12.027Z,1010.87
2023-01-26T09:34:12.069Z,1010.85
2023-01-26T09:35:14.746Z,1010.83
2023-01-26T09:36:12.039Z,1010.83
2023-01-26T09:37:11.991Z,1010.85
2023-01-26T09:38:11.995Z,1010.85
2023-01-26T09:39:11.979Z,1010.87
2023-01-26T09:40:12.274Z,1010.89
2023-01-26T09:41:11.999Z,1010.91
2023-01-26T09:42:11.949Z,1010.92
2023-01-26T09:43:11.934Z,1010.91
2023-01-26T09:44:11.939Z,1010.91
2023-01-26T09:45:12.200Z,1010.91
2023-01-26T09:46:11.922Z,1010.92
2023-01-26T09:47:11.890Z,1010.91
2023-01-26T09:48:11.971Z,1010.90
2023-01-26T09:49:11.882Z,1010.90
2023-01-26T09:50:12.222Z,1010.92
2023-01-26T09:51:11.847Z,1010.90
2023-01-26T09:52:11.859Z,1010.90
2023-01-26T09:53:11.818Z,1010.89
2023-01-26T09:54:11.847Z,1010.88
2023-01-26T09:55:14.486Z,1010.88
2023-01-26T09:56:11.804Z,1010.89
2023-01-26T09:57:11.788Z,1010.92
2023-01-26T09:58:11.777Z,1010.92
2023-01-26T09:59:11.762Z,1010.94
2023-01-26T10:00:11.801Z,1010.93
2023-01-26T10:01:11.784Z,1010.92
2023-01-26T10:02:11.753Z,1010.93
2023-01-26T10:03:11.733Z,1010.92
2023-01-26T10:04:11.735Z,1010.88
2023-01-26T10:05:12.057Z,1010.86
2023-01-26T10:06:11.792Z,1010.93
2023-01-26T10:07:11.681Z,1010.92
2023-01-26T10:08:11.691Z,1010.89
2023-01-26T10:09:11.662Z,1010.82
2023-01-26T10:10:11.672Z,1010.83
2023-01-26T10:11:11.642Z,1010.85
2023-01-26T10:12:11.647Z,1010.82
2023-01-26T10:13:11.612Z,1010.79
2023-01-26T10:14:11.614Z,1010.71
2023-01-26T10:15:12.075Z,1010.75
2023-01-26T10:16:11.658Z,1010.82
2023-01-26T10:17:11.581Z,1010.81
2023-01-26T10:18:11.601Z,1010.74
2023-01-26T10:19:11.599Z,1010.68
2023-01-26T10:20:11.552Z,1010.68
2023-01-26T10:21:11.541Z,1010.79
2023-01-26T10:22:11.734Z,1010.81
2023-01-26T10:23:11.520Z,1010.75
2023-01-26T10:24:11.676Z,1010.67
2023-01-26T10:25:11.902Z,1010.64
2023-01-26T10:26:11.496Z,1010.66
2023-01-26T10:27:11.828Z,1010.67
2023-01-26T10:28:11.481Z,1010.66
2023-01-26T10:29:11.448Z,1010.65
2023-01-26T10:30:11.457Z,1010.68
2023-01-26T10:31:11.562Z,1010.67
2023-01-26T10:32:11.438Z,1010.65
2023-01-26T10:33:11.418Z,1010.63
2023-01-26T10:34:11.453Z,1010.63
2023-01-26T10:35:11.739Z,1010.63
2023-01-26T10:36:11.401Z,1010.62
2023-01-26T10:37:11.393Z,1010.63
2023-01-26T10:38:11.382Z,1010.63
2023-01-26T10:39:11.514Z,1010.60
2023-01-26T10:40:11.348Z,1010.61
2023-01-26T10:41:11.344Z,1010.64
2023-01-26T10:42:11.350Z,1010.64
2023-01-26T10:43:11.312Z,1010.64
2023-01-26T10:44:11.309Z,1010.62
2023-01-26T10:45:11.853Z,1010.59
2023-01-26T10:46:11.416Z,1010.58
2023-01-26T10:47:11.287Z,1010.60
2023-01-26T10:48:11.254Z,1010.60
2023-01-26T10:49:11.242Z,1010.54
2023-01-26T10:50:11.250Z,1010.53
2023-01-26T10:51:11.237Z,1010.56
2023-01-26T10:52:11.239Z,1010.57
2023-01-26T10:53:11.209Z,1010.51
2023-01-26T10:54:11.202Z,1010.50
2023-01-26T10:55:11.479Z,1010.50
2023-01-26T10:56:11.264Z,1010.51
2023-01-26T10:57:11.161Z,1010.54
2023-01-26T10:58:11.181Z,1010.54
2023-01-26T10:59:11.147Z,1010.53
2023-01-26T11:00:11.159Z,1010.50
2023-01-26T11:01:11.120Z,1010.50
2023-01-26T11:02:11.119Z,1010.51
2023-01-26T11:03:11.202Z,1010.53
2023-01-26T11:04:11.100Z,1010.54
2023-01-26T11:05:11.437Z,1010.55
2023-01-26T11:06:11.090Z,1010.57
2023-01-26T11:07:11.055Z,1010.56
2023-01-26T11:08:11.078Z,1010.56
2023-01-26T11:09:11.039Z,1010.56
2023-01-26T11:10:11.043Z,1010.58
2023-01-26T11:11:11.025Z,1010.57
2023-01-26T11:12:11.012Z,1010.50
2023-01-26T11:13:11.003Z,1010.53
2023-01-26T11:14:11.025Z,1010.53
2023-01-26T11:15:11.209Z,1010.52
2023-01-26T11:16:11.042Z,1010.49
2023-01-26T11:17:10.959Z,1010.50
2023-01-26T11:18:11.043Z,1010.54
2023-01-26T11:19:11.161Z,1010.54
2023-01-26T11:20:10.931Z,1010.54
2023-01-26T11:21:10.935Z,1010.50
2023-01-26T11:22:10.960Z,1010.43
2023-01-26T11:23:10.946Z,1010.45
2023-01-26T11:24:11.123Z,1010.50
2023-01-26T11:25:11.272Z,1010.50
2023-01-26T11:26:10.873Z,1010.49
2023-01-26T11:27:11.023Z,1010.46
2023-01-26T11:28:10.840Z,1010.44
2023-01-26T11:29:10.858Z,1010.41
2023-01-26T11:30:10.822Z,1010.44
2023-01-26T11:31:10.947Z,1010.46
2023-01-26T11:32:10.801Z,1010.46
2023-01-26T11:33:10.794Z,1010.46
2023-01-26T11:34:10.791Z,1010.46
2023-01-26T11:35:11.076Z,1010.44
2023-01-26T11:36:10.753Z,1010.44
2023-01-26T11:37:10.814Z,1010.46
2023-01-26T11:38:10.726Z,1010.45
2023-01-26T11:39:10.787Z,1010.50
2023-01-26T11:40:10.735Z,1010.48
2023-01-26T11:41:10.706Z,1010.46
2023-01-26T11:42:10.722Z,1010.45
2023-01-26T11:43:10.688Z,1010.47
2023-01-26T11:44:10.674Z,1010.47
2023-01-26T11:45:11.033Z,1010.45
2023-01-26T11:46:10.714Z,1010.43
2023-01-26T11:47:10.686Z,1010.44
2023-01-26T11:48:10.637Z,1010.43
2023-01-26T11:49:10.638Z,1010.40
2023-01-26T11:50:10.644Z,1010.39
2023-01-26T11:51:10.611Z,1010.36
2023-01-26T11:52:10.590Z,1010.37
2023-01-26T11:53:10.612Z,1010.39
2023-01-26T11:54:10.566Z,1010.39
2023-01-26T11:55:10.911Z,1010.39
2023-01-26T11:56:10.573Z,1010.39
2023-01-26T11:57:10.551Z,1010.37
2023-01-26T11:58:10.532Z,1010.35
2023-01-26T11:59:10.531Z,1010.35
2023-01-26T12:00:20.714Z,1010.34
2023-01-26T12:01:10.546Z,1010.35
2023-01-26T12:02:10.536Z,1010.34
2023-01-26T12:03:10.519Z,1010.33
2023-01-26T12:04:10.477Z,1010.33
2023-01-26T12:05:10.868Z,1010.33